Calera, AL

5:09 PM CST on November 27, 2014 (GMT -0600)
Country Hills | Change Station
CLOSE
Current Station
Personal Weather Station
Location: Montevallo, AL
Elevation: 509 ft
Nearby Weather Stations

Elev 509 ft 33.15 °N, 86.82 °W | Updated 12 minutes ago

Overcast
Overcast
41.5 °F
Feels Like 39 °F
N
4.2
Wind Variable Wind from WNW

Today
High -- | Low -- °F
--% Chance of Precip.
Yesterday
High -- | Low -- °F
Precip. -- in
6:28 AM 4:40 PM
Waxing Crescent, 34% visible
Pressure 30.41 in
Visibility 10.0 miles
Clouds Overcast 4200 ft
Windchill 39 °F
Dew Point Not available.
Humidity Not available.
Rainfall 0.00 in
Snow Depth Not available.
UV 0 out of 12
Pollen .70 out of 12
Air Quality Not available.
Flu Activity Not available.
METAR KEET 272253Z AUTO 31005KT 10SM OVC042 07/M02 A3041 RMK AO2 SLP298 T00671017

More Conditions Fewer Conditions

Pressure 30.41 in
Visibility 10.0 miles
Clouds Overcast 4200 ft
Windchill 39 °F
Dew Point Not available.
Humidity Not available.
Rainfall 0.00 in
Snow Depth Not available.
UV 0 out of 12
Pollen .70 out of 12
Air Quality Not available.
Flu Activity Not available.
METAR KEET 272253Z AUTO 31005KT 10SM OVC042 07/M02 A3041 RMK AO2 SLP298 T00671017

More Conditions Fewer Conditions

10-Day Weather Forecast

Almanac

Astronomy

Nov. 27, 2014 Rise Set
Actual Time
Civil Twilight
Nautical Twilight
Astronomical Twilight
Moon
Length of Visible Light
Length of Day
Tomorrow will be .
, % of the Moon is Illuminated

Today's Extremes

State Highs State Lows

Community

WunderPhotos

Upload Photos

1,774,134 photos uploaded!

WunderBlogs® & News

Nearby

Air Quality

  Air Quality AQ Index Pollutant
Not available.

Snow Depth

Station Depth Elevation

Earthquake Activity

City Distance Mag. Time & Date
Minimum magnitude displayed is 2.5.

Coastal Water Temperatures

Place Temperature

Nearby Weather Stations